sensor_id;sensor_type;location;lat;lon;timestamp;pressure;altitude;pressure_sealevel;temperature;humidity
61742;BME280;47650;49.848;9.620;2022-09-13T00:00:32;99278.22;;;14.55;72.25
61742;BME280;47650;49.848;9.620;2022-09-13T00:02:58;99268.75;;;14.52;72.14
61742;BME280;47650;49.848;9.620;2022-09-13T00:05:25;99240.56;;;14.35;71.71
61742;BME280;47650;49.848;9.620;2022-09-13T00:07:51;99263.31;;;14.45;71.59
61742;BME280;47650;49.848;9.620;2022-09-13T00:10:16;99269.81;;;14.43;71.56
61742;BME280;47650;49.848;9.620;2022-09-13T00:12:41;99257.38;;;14.35;71.77
61742;BME280;47650;49.848;9.620;2022-09-13T00:15:07;99254.06;;;14.33;71.79
61742;BME280;47650;49.848;9.620;2022-09-13T00:17:33;99266.09;;;14.29;71.96
61742;BME280;47650;49.848;9.620;2022-09-13T00:19:58;99275.63;;;14.23;72.46
61742;BME280;47650;49.848;9.620;2022-09-13T00:22:25;99239.00;;;13.94;72.43
61742;BME280;47650;49.848;9.620;2022-09-13T00:24:51;99277.19;;;14.18;72.63
61742;BME280;47650;49.848;9.620;2022-09-13T00:27:16;99269.81;;;14.20;72.84
61742;BME280;47650;49.848;9.620;2022-09-13T00:29:42;99246.78;;;14.04;72.70
61742;BME280;47650;49.848;9.620;2022-09-13T00:32:07;99269.00;;;14.19;72.52
61742;BME280;47650;49.848;9.620;2022-09-13T00:34:32;99262.34;;;14.15;72.44
61742;BME280;47650;49.848;9.620;2022-09-13T00:36:58;99273.47;;;14.19;72.43
61742;BME280;47650;49.848;9.620;2022-09-13T00:39:23;99254.59;;;14.05;72.43
61742;BME280;47650;49.848;9.620;2022-09-13T00:41:48;99272.19;;;14.15;72.56
61742;BME280;47650;49.848;9.620;2022-09-13T00:52:55;99267.94;;;14.05;72.63
61742;BME280;47650;49.848;9.620;2022-09-13T00:55:26;99271.94;;;14.01;72.41
61742;BME280;47650;49.848;9.620;2022-09-13T00:57:57;99274.28;;;13.96;72.57
61742;BME280;47650;49.848;9.620;2022-09-13T01:00:24;99262.34;;;13.92;72.46
61742;BME280;47650;49.848;9.620;2022-09-13T01:02:52;99260.34;;;13.86;72.43
61742;BME280;47650;49.848;9.620;2022-09-13T01:05:22;99246.25;;;13.77;72.37
61742;BME280;47650;49.848;9.620;2022-09-13T01:07:49;99258.06;;;13.83;72.24
61742;BME280;47650;49.848;9.620;2022-09-13T01:10:15;99241.50;;;13.64;72.39
61742;BME280;47650;49.848;9.620;2022-09-13T01:13:27;99252.59;;;13.76;72.56
61742;BME280;47650;49.848;9.620;2022-09-13T01:15:38;99243.09;;;13.73;72.78
61742;BME280;47650;49.848;9.620;2022-09-13T01:18:04;99239.78;;;13.71;72.67
61742;BME280;47650;49.848;9.620;2022-09-13T01:23:46;99240.50;;;13.65;72.81
61742;BME280;47650;49.848;9.620;2022-09-13T01:28:57;99244.50;;;13.61;73.01
61742;BME280;47650;49.848;9.620;2022-09-13T01:31:36;99231.53;;;13.58;73.14
61742;BME280;47650;49.848;9.620;2022-09-13T01:37:04;99226.44;;;13.48;72.98
61742;BME280;47650;49.848;9.620;2022-09-13T01:39:58;99145.59;;;12.93;73.11
61742;BME280;47650;49.848;9.620;2022-09-13T01:42:39;99225.09;;;13.44;73.19
61742;BME280;47650;49.848;9.620;2022-09-13T01:47:58;99226.78;;;13.45;73.37
61742;BME280;47650;49.848;9.620;2022-09-13T01:50:45;99215.94;;;13.47;73.12
61742;BME280;47650;49.848;9.620;2022-09-13T01:53:34;99186.81;;;13.45;73.22
61742;BME280;47650;49.848;9.620;2022-09-13T02:01:42;99210.00;;;13.37;73.88
61742;BME280;47650;49.848;9.620;2022-09-13T02:04:19;99206.69;;;13.34;73.83
61742;BME280;47650;49.848;9.620;2022-09-13T02:06:55;99168.13;;;13.14;73.65
61742;BME280;47650;49.848;9.620;2022-09-13T02:09:26;99205.00;;;13.33;73.51
61742;BME280;47650;49.848;9.620;2022-09-13T02:12:00;99202.53;;;13.32;73.24
61742;BME280;47650;49.848;9.620;2022-09-13T02:14:34;99203.38;;;13.24;73.52
61742;BME280;47650;49.848;9.620;2022-09-13T02:17:06;99224.69;;;13.32;73.69
61742;BME280;47650;49.848;9.620;2022-09-13T02:19:39;99221.97;;;13.41;73.84
61742;BME280;47650;49.848;9.620;2022-09-13T02:22:07;99207.31;;;13.45;73.86
61742;BME280;47650;49.848;9.620;2022-09-13T02:24:44;99216.00;;;13.70;73.87
61742;BME280;47650;49.848;9.620;2022-09-13T02:27:14;99228.94;;;13.81;73.60
61742;BME280;47650;49.848;9.620;2022-09-13T02:29:43;99200.84;;;13.70;73.14
61742;BME280;47650;49.848;9.620;2022-09-13T02:32:15;99228.00;;;13.97;72.66
61742;BME280;47650;49.848;9.620;2022-09-13T02:34:45;99214.50;;;13.99;72.34
61742;BME280;47650;49.848;9.620;2022-09-13T02:37:12;99171.78;;;13.84;72.41
61742;BME280;47650;49.848;9.620;2022-09-13T02:39:46;99215.03;;;14.17;72.54
61742;BME280;47650;49.848;9.620;2022-09-13T02:42:20;99170.66;;;14.01;73.06
61742;BME280;47650;49.848;9.620;2022-09-13T02:44:51;99196.16;;;14.19;73.76
61742;BME280;47650;49.848;9.620;2022-09-13T02:53:17;99171.75;;;14.30;74.34
61742;BME280;47650;49.848;9.620;2022-09-13T02:58:55;99171.66;;;14.00;74.11
61742;BME280;47650;49.848;9.620;2022-09-13T03:01:23;99182.72;;;13.26;77.48
61742;BME280;47650;49.848;9.620;2022-09-13T03:03:51;99157.09;;;13.33;77.46
61742;BME280;47650;49.848;9.620;2022-09-13T03:06:27;99218.34;;;13.65;76.94
61742;BME280;47650;49.848;9.620;2022-09-13T03:08:57;99223.81;;;13.71;77.17
61742;BME280;47650;49.848;9.620;2022-09-13T03:17:03;99236.16;;;13.96;77.66
61742;BME280;47650;49.848;9.620;2022-09-13T03:27:29;99244.81;;;14.44;75.44
61742;BME280;47650;49.848;9.620;2022-09-13T03:30:10;99244.94;;;14.51;75.53
61742;BME280;47650;49.848;9.620;2022-09-13T03:32:42;99232.22;;;14.53;75.35
61742;BME280;47650;49.848;9.620;2022-09-13T03:38:26;99228.56;;;14.54;74.58
61742;BME280;47650;49.848;9.620;2022-09-13T03:40:59;99226.59;;;14.47;74.60
61742;BME280;47650;49.848;9.620;2022-09-13T03:43:58;99223.59;;;14.51;74.36
61742;BME280;47650;49.848;9.620;2022-09-13T03:46:34;99215.88;;;14.56;74.58
61742;BME280;47650;49.848;9.620;2022-09-13T03:49:06;99206.53;;;14.60;74.72
61742;BME280;47650;49.848;9.620;2022-09-13T03:51:33;99179.06;;;14.36;73.95
61742;BME280;47650;49.848;9.620;2022-09-13T03:54:03;99201.50;;;14.57;74.10
61742;BME280;47650;49.848;9.620;2022-09-13T03:56:29;99170.66;;;14.24;72.90
61742;BME280;47650;49.848;9.620;2022-09-13T03:58:54;99199.88;;;14.33;73.46
61742;BME280;47650;49.848;9.620;2022-09-13T04:01:22;99197.03;;;14.34;73.70
61742;BME280;47650;49.848;9.620;2022-09-13T04:03:48;99191.13;;;14.24;73.69
61742;BME280;47650;49.848;9.620;2022-09-13T04:06:14;99156.78;;;14.06;73.66
61742;BME280;47650;49.848;9.620;2022-09-13T04:08:40;99200.16;;;14.23;73.70
61742;BME280;47650;49.848;9.620;2022-09-13T04:11:05;99207.50;;;14.21;73.57
61742;BME280;47650;49.848;9.620;2022-09-13T04:13:32;99132.53;;;13.78;73.67
61742;BME280;47650;49.848;9.620;2022-09-13T04:16:01;99151.22;;;13.92;73.60
61742;BME280;47650;49.848;9.620;2022-09-13T04:18:29;99182.66;;;14.20;73.34
61742;BME280;47650;49.848;9.620;2022-09-13T04:20:59;99148.50;;;14.01;73.14
61742;BME280;47650;49.848;9.620;2022-09-13T04:23:26;99173.31;;;14.24;73.13
61742;BME280;47650;49.848;9.620;2022-09-13T04:25:51;99175.25;;;14.30;73.16
61742;BME280;47650;49.848;9.620;2022-09-13T04:28:18;99156.84;;;14.21;72.96
61742;BME280;47650;49.848;9.620;2022-09-13T04:30:45;99174.00;;;14.41;72.02
61742;BME280;47650;49.848;9.620;2022-09-13T04:33:11;99182.47;;;14.45;72.09
61742;BME280;47650;49.848;9.620;2022-09-13T04:35:36;99157.78;;;14.28;71.97
61742;BME280;47650;49.848;9.620;2022-09-13T04:38:03;99177.84;;;14.39;71.93
61742;BME280;47650;49.848;9.620;2022-09-13T04:40:29;99185.59;;;14.48;71.41
61742;BME280;47650;49.848;9.620;2022-09-13T04:42:54;99189.56;;;14.53;71.21
61742;BME280;47650;49.848;9.620;2022-09-13T04:45:19;99189.19;;;14.56;70.99
61742;BME280;47650;49.848;9.620;2022-09-13T04:47:52;99197.53;;;14.61;70.98
61742;BME280;47650;49.848;9.620;2022-09-13T04:50:19;99189.19;;;14.56;70.77
61742;BME280;47650;49.848;9.620;2022-09-13T04:52:45;99181.84;;;14.58;70.59
61742;BME280;47650;49.848;9.620;2022-09-13T04:55:10;99195.41;;;14.71;70.95
61742;BME280;47650;49.848;9.620;2022-09-13T04:57:39;99194.66;;;14.77;70.75
61742;BME280;47650;49.848;9.620;2022-09-13T05:00:05;99158.50;;;14.60;70.62
61742;BME280;47650;49.848;9.620;2022-09-13T05:02:31;99176.38;;;14.74;70.97
61742;BME280;47650;49.848;9.620;2022-09-13T05:04:56;99193.47;;;14.95;70.98
61742;BME280;47650;49.848;9.620;2022-09-13T05:07:22;99198.28;;;14.99;70.94
61742;BME280;47650;49.848;9.620;2022-09-13T05:09:47;99174.06;;;14.86;70.59
61742;BME280;47650;49.848;9.620;2022-09-13T05:12:12;99187.88;;;15.04;70.53
61742;BME280;47650;49.848;9.620;2022-09-13T05:14:39;99195.34;;;15.09;70.70
61742;BME280;47650;49.848;9.620;2022-09-13T05:17:04;99195.34;;;15.09;70.65
61742;BME280;47650;49.848;9.620;2022-09-13T05:19:29;99192.31;;;15.12;70.85
61742;BME280;47650;49.848;9.620;2022-09-13T05:21:55;99093.16;;;14.56;70.57
61742;BME280;47650;49.848;9.620;2022-09-13T05:24:21;99170.69;;;15.07;70.16
61742;BME280;47650;49.848;9.620;2022-09-13T05:26:46;99183.00;;;15.08;69.70
61742;BME280;47650;49.848;9.620;2022-09-13T05:29:12;99203.78;;;15.28;69.68
61742;BME280;47650;49.848;9.620;2022-09-13T05:31:40;99218.44;;;15.32;69.41
61742;BME280;47650;49.848;9.620;2022-09-13T05:34:11;99213.75;;;15.34;69.88
61742;BME280;47650;49.848;9.620;2022-09-13T05:36:38;99177.28;;;15.11;69.37
61742;BME280;47650;49.848;9.620;2022-09-13T05:39:05;99178.78;;;14.99;69.10
61742;BME280;47650;49.848;9.620;2022-09-13T05:41:31;99229.41;;;15.37;69.53
61742;BME280;47650;49.848;9.620;2022-09-13T05:43:57;99234.66;;;15.45;69.55
61742;BME280;47650;49.848;9.620;2022-09-13T05:46:23;99230.84;;;15.54;69.58
61742;BME280;47650;49.848;9.620;2022-09-13T05:48:48;99229.72;;;15.64;69.29
61742;BME280;47650;49.848;9.620;2022-09-13T05:51:21;99237.94;;;15.77;68.99
61742;BME280;47650;49.848;9.620;2022-09-13T05:53:48;99229.81;;;15.85;68.49
61742;BME280;47650;49.848;9.620;2022-09-13T05:56:17;99227.22;;;15.92;68.03
61742;BME280;47650;49.848;9.620;2022-09-13T05:58:45;99243.28;;;15.98;68.09
61742;BME280;47650;49.848;9.620;2022-09-13T06:01:14;99239.50;;;16.08;67.54
61742;BME280;47650;49.848;9.620;2022-09-13T06:03:40;99216.38;;;16.00;67.27
61742;BME280;47650;49.848;9.620;2022-09-13T06:06:06;99233.25;;;16.22;67.03
61742;BME280;47650;49.848;9.620;2022-09-13T06:08:32;99231.91;;;16.33;66.97
61742;BME280;47650;49.848;9.620;2022-09-13T06:11:03;99232.09;;;16.31;65.79
61742;BME280;47650;49.848;9.620;2022-09-13T06:13:41;99223.44;;;16.29;66.33
61742;BME280;47650;49.848;9.620;2022-09-13T06:16:11;99215.91;;;16.40;66.91
61742;BME280;47650;49.848;9.620;2022-09-13T06:18:37;99223.91;;;16.11;66.67
61742;BME280;47650;49.848;9.620;2022-09-13T06:21:12;99233.06;;;15.36;69.69
61742;BME280;47650;49.848;9.620;2022-09-13T06:23:54;99202.44;;;15.02;70.81
61742;BME280;47650;49.848;9.620;2022-09-13T06:26:26;99209.31;;;14.81;72.13
61742;BME280;47650;49.848;9.620;2022-09-13T06:28:58;99240.00;;;15.45;71.98
61742;BME280;47650;49.848;9.620;2022-09-13T06:31:25;99219.22;;;15.77;71.71
61742;BME280;47650;49.848;9.620;2022-09-13T06:34:00;99213.31;;;15.67;70.01
61742;BME280;47650;49.848;9.620;2022-09-13T06:36:34;99218.66;;;15.67;69.92
61742;BME280;47650;49.848;9.620;2022-09-13T06:39:05;99219.03;;;15.64;70.13
61742;BME280;47650;49.848;9.620;2022-09-13T06:41:31;99173.22;;;16.03;69.76
61742;BME280;47650;49.848;9.620;2022-09-13T06:43:58;99189.16;;;16.61;69.76
61742;BME280;47650;49.848;9.620;2022-09-13T06:46:29;99195.94;;;16.92;68.66
61742;BME280;47650;49.848;9.620;2022-09-13T06:48:58;99213.50;;;16.73;66.17
61742;BME280;47650;49.848;9.620;2022-09-13T06:51:34;99209.88;;;15.88;68.71
61742;BME280;47650;49.848;9.620;2022-09-13T06:54:00;99208.69;;;15.90;69.65
61742;BME280;47650;49.848;9.620;2022-09-13T06:56:48;99205.97;;;16.55;69.23
61742;BME280;47650;49.848;9.620;2022-09-13T06:59:23;99191.06;;;17.02;68.66
61742;BME280;47650;49.848;9.620;2022-09-13T07:01:48;99200.19;;;17.15;65.69
61742;BME280;47650;49.848;9.620;2022-09-13T07:04:16;99190.06;;;17.52;65.52
61742;BME280;47650;49.848;9.620;2022-09-13T07:06:50;99196.91;;;17.61;62.62
61742;BME280;47650;49.848;9.620;2022-09-13T07:09:22;99199.97;;;17.51;63.89
61742;BME280;47650;49.848;9.620;2022-09-13T07:11:55;99200.56;;;17.46;64.55
61742;BME280;47650;49.848;9.620;2022-09-13T07:14:26;99195.09;;;17.81;63.14
61742;BME280;47650;49.848;9.620;2022-09-13T07:16:53;99176.53;;;17.80;62.21
61742;BME280;47650;49.848;9.620;2022-09-13T07:19:24;99214.38;;;17.08;65.11
61742;BME280;47650;49.848;9.620;2022-09-13T07:21:57;99213.59;;;17.15;65.10
61742;BME280;47650;49.848;9.620;2022-09-13T07:24:25;99202.47;;;17.66;64.97
61742;BME280;47650;49.848;9.620;2022-09-13T07:27:03;99175.69;;;17.73;64.23
61742;BME280;47650;49.848;9.620;2022-09-13T07:29:28;99205.50;;;18.11;63.41
61742;BME280;47650;49.848;9.620;2022-09-13T07:31:54;99168.13;;;18.10;63.51
61742;BME280;47650;49.848;9.620;2022-09-13T07:34:21;99206.38;;;18.45;62.99
61742;BME280;47650;49.848;9.620;2022-09-13T07:36:47;99186.56;;;18.39;62.64
61742;BME280;47650;49.848;9.620;2022-09-13T07:39:14;99160.13;;;18.43;62.17
61742;BME280;47650;49.848;9.620;2022-09-13T07:41:45;99200.38;;;18.96;61.49
61742;BME280;47650;49.848;9.620;2022-09-13T07:44:20;99201.31;;;19.22;59.23
61742;BME280;47650;49.848;9.620;2022-09-13T07:46:46;99198.72;;;19.54;58.50
61742;BME280;47650;49.848;9.620;2022-09-13T07:49:31;99162.50;;;19.05;57.12
61742;BME280;47650;49.848;9.620;2022-09-13T07:52:11;99216.69;;;18.48;60.63
61742;BME280;47650;49.848;9.620;2022-09-13T07:54:37;99218.25;;;19.29;59.46
61742;BME280;47650;49.848;9.620;2022-09-13T07:57:02;99208.59;;;19.60;58.65
61742;BME280;47650;49.848;9.620;2022-09-13T07:59:28;99222.22;;;19.65;57.10
61742;BME280;47650;49.848;9.620;2022-09-13T08:01:54;99233.63;;;18.95;59.18
61742;BME280;47650;49.848;9.620;2022-09-13T08:04:24;99235.94;;;19.57;59.09
61742;BME280;47650;49.848;9.620;2022-09-13T08:06:49;99223.91;;;19.66;57.63
61742;BME280;47650;49.848;9.620;2022-09-13T08:09:15;99208.94;;;19.25;56.47
61742;BME280;47650;49.848;9.620;2022-09-13T08:11:49;99220.59;;;19.64;57.46
61742;BME280;47650;49.848;9.620;2022-09-13T08:14:18;99228.88;;;20.08;56.78
61742;BME280;47650;49.848;9.620;2022-09-13T08:16:44;99223.53;;;20.33;55.97
61742;BME280;47650;49.848;9.620;2022-09-13T08:19:14;99222.84;;;20.13;54.96
61742;BME280;47650;49.848;9.620;2022-09-13T08:22:04;99215.13;;;20.48;54.02
61742;BME280;47650;49.848;9.620;2022-09-13T08:24:29;99214.84;;;20.63;54.15
61742;BME280;47650;49.848;9.620;2022-09-13T08:26:55;99187.69;;;20.64;54.37
61742;BME280;47650;49.848;9.620;2022-09-13T08:29:26;99208.72;;;20.74;55.21
61742;BME280;47650;49.848;9.620;2022-09-13T08:31:52;99206.81;;;21.00;54.78
61742;BME280;47650;49.848;9.620;2022-09-13T08:34:18;99200.06;;;21.09;54.14
61742;BME280;47650;49.848;9.620;2022-09-13T08:36:45;99189.00;;;21.54;54.50
61742;BME280;47650;49.848;9.620;2022-09-13T08:39:12;99188.06;;;21.79;52.83
61742;BME280;47650;49.848;9.620;2022-09-13T08:46:46;99162.50;;;22.59;51.10
61742;BME280;47650;49.848;9.620;2022-09-13T08:49:27;99167.66;;;22.37;50.58
61742;BME280;47650;49.848;9.620;2022-09-13T08:52:11;99179.22;;;20.79;55.35
61742;BME280;47650;49.848;9.620;2022-09-13T08:54:44;99175.53;;;20.48;56.02
61742;BME280;47650;49.848;9.620;2022-09-13T08:57:19;99150.50;;;21.10;55.66
61742;BME280;47650;49.848;9.620;2022-09-13T09:00:54;99143.09;;;21.24;54.12
61742;BME280;47650;49.848;9.620;2022-09-13T09:06:00;99159.69;;;18.86;60.89
61742;BME280;47650;49.848;9.620;2022-09-13T09:08:39;99148.28;;;19.88;58.50
61742;BME280;47650;49.848;9.620;2022-09-13T09:13:56;99158.97;;;19.63;59.05
61742;BME280;47650;49.848;9.620;2022-09-13T09:16:47;99168.13;;;19.94;58.82
61742;BME280;47650;49.848;9.620;2022-09-13T09:19:45;99175.91;;;19.63;58.51
61742;BME280;47650;49.848;9.620;2022-09-13T09:22:22;99176.31;;;20.05;57.08
61742;BME280;47650;49.848;9.620;2022-09-13T09:24:53;99174.72;;;19.52;58.23
61742;BME280;47650;49.848;9.620;2022-09-13T09:27:20;99153.63;;;20.70;55.81
61742;BME280;47650;49.848;9.620;2022-09-13T09:29:51;99137.63;;;21.31;54.21
61742;BME280;47650;49.848;9.620;2022-09-13T09:40:48;99156.69;;;24.64;45.12
61742;BME280;47650;49.848;9.620;2022-09-13T09:43:28;99109.28;;;24.83;44.43
61742;BME280;47650;49.848;9.620;2022-09-13T09:46:04;99122.13;;;25.15;45.02
61742;BME280;47650;49.848;9.620;2022-09-13T09:48:39;99121.72;;;25.50;43.04
61742;BME280;47650;49.848;9.620;2022-09-13T09:51:18;99134.19;;;23.66;46.56
61742;BME280;47650;49.848;9.620;2022-09-13T09:53:47;99148.69;;;22.02;50.75
61742;BME280;47650;49.848;9.620;2022-09-13T09:56:26;99141.00;;;22.64;50.22
61742;BME280;47650;49.848;9.620;2022-09-13T09:59:24;99138.03;;;23.13;49.45
61742;BME280;47650;49.848;9.620;2022-09-13T10:01:50;99150.41;;;22.50;50.30
61742;BME280;47650;49.848;9.620;2022-09-13T10:04:20;99149.88;;;21.45;53.64
61742;BME280;47650;49.848;9.620;2022-09-13T10:10:28;99145.69;;;21.31;54.00
61742;BME280;47650;49.848;9.620;2022-09-13T10:12:58;99128.94;;;21.89;51.89
61742;BME280;47650;49.848;9.620;2022-09-13T10:15:28;99120.50;;;21.86;52.65
61742;BME280;47650;49.848;9.620;2022-09-13T10:18:16;99136.88;;;21.72;53.98
61742;BME280;47650;49.848;9.620;2022-09-13T10:21:00;99134.31;;;21.47;56.26
61742;BME280;47650;49.848;9.620;2022-09-13T10:23:34;99137.44;;;21.44;56.51
61742;BME280;47650;49.848;9.620;2022-09-13T10:26:16;99140.31;;;21.12;54.91
61742;BME280;47650;49.848;9.620;2022-09-13T10:28:59;99143.25;;;20.74;57.53
61742;BME280;47650;49.848;9.620;2022-09-13T10:31:40;99135.38;;;20.72;59.21
61742;BME280;47650;49.848;9.620;2022-09-13T10:34:29;99144.75;;;20.70;59.65
61742;BME280;47650;49.848;9.620;2022-09-13T10:37:18;99144.66;;;20.76;59.64
61742;BME280;47650;49.848;9.620;2022-09-13T10:40:06;99133.00;;;20.57;59.56
61742;BME280;47650;49.848;9.620;2022-09-13T10:42:34;99114.91;;;20.71;59.23
61742;BME280;47650;49.848;9.620;2022-09-13T10:45:02;99154.88;;;21.11;58.30
61742;BME280;47650;49.848;9.620;2022-09-13T10:47:32;99165.28;;;20.64;59.61
61742;BME280;47650;49.848;9.620;2022-09-13T10:50:27;99170.09;;;20.37;61.01
61742;BME280;47650;49.848;9.620;2022-09-13T10:52:56;99165.03;;;20.47;59.87
61742;BME280;47650;49.848;9.620;2022-09-13T10:55:29;99163.03;;;20.61;61.24
61742;BME280;47650;49.848;9.620;2022-09-13T11:00:45;99177.00;;;19.56;63.26
61742;BME280;47650;49.848;9.620;2022-09-13T11:03:49;99162.84;;;19.28;65.64
61742;BME280;47650;49.848;9.620;2022-09-13T11:06:36;99151.53;;;19.58;63.67
61742;BME280;47650;49.848;9.620;2022-09-13T11:11:51;99145.47;;;20.33;65.41
61742;BME280;47650;49.848;9.620;2022-09-13T11:14:52;99140.63;;;20.60;64.77
61742;BME280;47650;49.848;9.620;2022-09-13T11:17:46;99152.09;;;20.99;65.75
61742;BME280;47650;49.848;9.620;2022-09-13T11:20:21;99153.56;;;21.14;64.24
61742;BME280;47650;49.848;9.620;2022-09-13T11:31:23;99142.94;;;21.00;63.29
61742;BME280;47650;49.848;9.620;2022-09-13T11:36:56;99149.44;;;21.48;65.19
61742;BME280;47650;49.848;9.620;2022-09-13T11:39:56;99148.16;;;21.81;64.50
61742;BME280;47650;49.848;9.620;2022-09-13T11:45:23;99145.50;;;22.70;60.67
61742;BME280;47650;49.848;9.620;2022-09-13T11:50:36;99087.53;;;22.90;58.15
61742;BME280;47650;49.848;9.620;2022-09-13T11:53:28;99127.00;;;23.43;56.06
61742;BME280;47650;49.848;9.620;2022-09-13T11:56:00;99123.50;;;23.60;53.64
61742;BME280;47650;49.848;9.620;2022-09-13T11:58:36;99138.31;;;24.15;56.63
61742;BME280;47650;49.848;9.620;2022-09-13T12:01:09;99115.59;;;24.72;52.67
61742;BME280;47650;49.848;9.620;2022-09-13T12:03:50;99111.84;;;24.73;53.35
61742;BME280;47650;49.848;9.620;2022-09-13T12:06:29;99105.91;;;25.20;51.63
61742;BME280;47650;49.848;9.620;2022-09-13T12:09:06;99068.34;;;24.63;49.66
61742;BME280;47650;49.848;9.620;2022-09-13T12:11:38;99084.94;;;25.92;49.38
61742;BME280;47650;49.848;9.620;2022-09-13T12:14:11;99079.22;;;25.94;46.98
61742;BME280;47650;49.848;9.620;2022-09-13T12:16:44;99090.53;;;26.98;46.44
61742;BME280;47650;49.848;9.620;2022-09-13T12:19:27;99098.47;;;27.20;45.00
61742;BME280;47650;49.848;9.620;2022-09-13T12:21:55;99114.94;;;23.80;52.96
61742;BME280;47650;49.848;9.620;2022-09-13T12:24:41;99111.78;;;24.34;54.38
61742;BME280;47650;49.848;9.620;2022-09-13T12:27:12;99108.09;;;23.89;53.47
61742;BME280;47650;49.848;9.620;2022-09-13T12:29:52;99088.03;;;24.41;52.07
61742;BME280;47650;49.848;9.620;2022-09-13T12:32:18;99089.25;;;24.89;53.67
61742;BME280;47650;49.848;9.620;2022-09-13T12:35:04;99075.59;;;25.01;51.92
61742;BME280;47650;49.848;9.620;2022-09-13T12:37:48;99078.28;;;25.23;53.59
61742;BME280;47650;49.848;9.620;2022-09-13T12:40:50;99055.91;;;25.11;52.05
61742;BME280;47650;49.848;9.620;2022-09-13T12:43:59;99055.53;;;24.58;53.12
61742;BME280;47650;49.848;9.620;2022-09-13T12:52:31;99053.31;;;25.21;53.91
61742;BME280;47650;49.848;9.620;2022-09-13T12:57:44;99045.03;;;26.35;52.71
61742;BME280;47650;49.848;9.620;2022-09-13T13:03:27;99027.50;;;28.29;44.74
61742;BME280;47650;49.848;9.620;2022-09-13T13:06:06;99020.16;;;29.00;44.73
61742;BME280;47650;49.848;9.620;2022-09-13T13:08:33;99026.13;;;28.32;42.70
61742;BME280;47650;49.848;9.620;2022-09-13T13:11:06;99020.44;;;30.12;43.40
61742;BME280;47650;49.848;9.620;2022-09-13T13:13:45;99012.09;;;31.71;38.23
61742;BME280;47650;49.848;9.620;2022-09-13T13:16:29;98998.13;;;31.86;35.60
61742;BME280;47650;49.848;9.620;2022-09-13T13:18:57;99005.09;;;31.46;35.44
61742;BME280;47650;49.848;9.620;2022-09-13T13:29:21;99015.84;;;29.73;38.69
61742;BME280;47650;49.848;9.620;2022-09-13T13:37:36;98988.53;;;30.32;39.33
61742;BME280;47650;49.848;9.620;2022-09-13T13:39:42;98990.72;;;30.30;38.54
61742;BME280;47650;49.848;9.620;2022-09-13T13:42:30;98991.81;;;28.91;40.48
61742;BME280;47650;49.848;9.620;2022-09-13T13:50:15;98977.91;;;28.93;41.31
61742;BME280;47650;49.848;9.620;2022-09-13T13:52:57;98994.38;;;29.27;42.77
61742;BME280;47650;49.848;9.620;2022-09-13T13:55:38;98990.59;;;29.23;41.40
61742;BME280;47650;49.848;9.620;2022-09-13T14:01:20;98999.22;;;27.43;44.11
61742;BME280;47650;49.848;9.620;2022-09-13T14:07:06;98990.47;;;27.26;45.18
61742;BME280;47650;49.848;9.620;2022-09-13T14:09:55;98973.63;;;27.70;44.27
61742;BME280;47650;49.848;9.620;2022-09-13T14:12:56;98980.69;;;27.81;42.31
61742;BME280;47650;49.848;9.620;2022-09-13T14:20:59;98986.84;;;26.84;44.46
61742;BME280;47650;49.848;9.620;2022-09-13T14:23:25;98989.97;;;27.29;44.04
61742;BME280;47650;49.848;9.620;2022-09-13T14:25:56;98976.66;;;25.63;47.66
61742;BME280;47650;49.848;9.620;2022-09-13T14:28:25;98997.63;;;26.11;46.54
61742;BME280;47650;49.848;9.620;2022-09-13T14:30:55;98989.91;;;25.60;49.55
61742;BME280;47650;49.848;9.620;2022-09-13T14:33:33;98980.41;;;26.37;48.53
61742;BME280;47650;49.848;9.620;2022-09-13T14:36:13;98972.50;;;27.19;46.76
61742;BME280;47650;49.848;9.620;2022-09-13T14:38:49;98971.41;;;27.15;45.83
61742;BME280;47650;49.848;9.620;2022-09-13T14:41:20;98970.03;;;27.13;45.99
61742;BME280;47650;49.848;9.620;2022-09-13T14:43:50;98957.28;;;27.54;45.15
61742;BME280;47650;49.848;9.620;2022-09-13T14:46:27;98961.66;;;27.40;45.59
61742;BME280;47650;49.848;9.620;2022-09-13T14:49:06;98940.66;;;27.97;44.20
61742;BME280;47650;49.848;9.620;2022-09-13T14:52:02;98930.44;;;28.39;43.83
61742;BME280;47650;49.848;9.620;2022-09-13T14:54:42;98929.94;;;28.26;42.25
61742;BME280;47650;49.848;9.620;2022-09-13T14:57:21;98938.16;;;28.16;42.01
61742;BME280;47650;49.848;9.620;2022-09-13T14:59:52;98921.03;;;26.72;43.86
61742;BME280;47650;49.848;9.620;2022-09-13T15:02:21;98926.28;;;27.35;43.08
61742;BME280;47650;49.848;9.620;2022-09-13T15:04:50;98922.72;;;27.75;43.38
61742;BME280;47650;49.848;9.620;2022-09-13T15:07:30;98919.66;;;27.82;42.84
61742;BME280;47650;49.848;9.620;2022-09-13T15:12:53;98929.53;;;27.42;42.90
61742;BME280;47650;49.848;9.620;2022-09-13T15:17:58;98921.31;;;27.11;43.85
61742;BME280;47650;49.848;9.620;2022-09-13T15:23:15;98927.22;;;26.62;45.40
61742;BME280;47650;49.848;9.620;2022-09-13T15:25:46;98929.09;;;26.51;45.76
61742;BME280;47650;49.848;9.620;2022-09-13T15:28:22;98926.34;;;26.46;46.52
61742;BME280;47650;49.848;9.620;2022-09-13T15:30:48;98921.44;;;26.48;46.41
61742;BME280;47650;49.848;9.620;2022-09-13T15:33:22;98921.00;;;26.08;47.29
61742;BME280;47650;49.848;9.620;2022-09-13T15:35:49;98914.44;;;25.94;47.68
61742;BME280;47650;49.848;9.620;2022-09-13T15:38:20;98925.06;;;25.63;47.68
61742;BME280;47650;49.848;9.620;2022-09-13T15:43:39;98910.34;;;25.54;48.82
61742;BME280;47650;49.848;9.620;2022-09-13T15:46:11;98916.81;;;25.48;50.49
61742;BME280;47650;49.848;9.620;2022-09-13T15:48:44;98907.13;;;25.25;51.02
61742;BME280;47650;49.848;9.620;2022-09-13T15:51:14;98911.06;;;24.85;50.49
61742;BME280;47650;49.848;9.620;2022-09-13T15:53:41;98897.84;;;24.88;52.69
61742;BME280;47650;49.848;9.620;2022-09-13T15:56:17;98900.69;;;25.04;53.71
61742;BME280;47650;49.848;9.620;2022-09-13T15:58:44;98900.50;;;25.15;54.21